createdAt,value
2024-05-09T00:00:31.563Z,1029.162
2024-05-09T00:01:27.973Z,1029.162
2024-05-09T00:02:27.912Z,1029.119
2024-05-09T00:03:27.993Z,1029.149
2024-05-09T00:04:27.988Z,1029.099
2024-05-09T00:05:26.978Z,1029.116
2024-05-09T00:06:29.794Z,1029.08
2024-05-09T00:07:26.952Z,1029.075
2024-05-09T00:08:27.961Z,1029.075
2024-05-09T00:09:27.919Z,1029.066
2024-05-09T00:10:35.213Z,1029.052
2024-05-09T00:11:27.983Z,1029.027
2024-05-09T00:12:26.957Z,1029.048
2024-05-09T00:13:27.916Z,1029.016
2024-05-09T00:14:27.999Z,1029.046
2024-05-09T00:15:26.917Z,1029.045
2024-05-09T00:16:27.901Z,1029.061
2024-05-09T00:17:27.110Z,1029.053
2024-05-09T00:18:28.088Z,1029.053
2024-05-09T00:19:28.084Z,1029.063
2024-05-09T00:20:35.125Z,1029.07
2024-05-09T00:21:27.923Z,1029.067
2024-05-09T00:22:26.989Z,1029.077
2024-05-09T00:23:27.987Z,1029.052
2024-05-09T00:24:26.948Z,1029.033
2024-05-09T00:25:27.011Z,1029.025
2024-05-09T00:26:28.053Z,1029.05
2024-05-09T00:27:26.952Z,1029.077
2024-05-09T00:28:27.957Z,1029.015
2024-05-09T00:29:27.072Z,1029.058
2024-05-09T00:30:33.599Z,1029.046
2024-05-09T00:31:27.956Z,1029.059
2024-05-09T00:32:27.030Z,1029.069
2024-05-09T00:33:28.321Z,1029.077
2024-05-09T00:34:27.089Z,1029.061
2024-05-09T00:35:30.034Z,1029.053
2024-05-09T00:36:26.971Z,1029.066
2024-05-09T00:37:27.027Z,1029.062
2024-05-09T00:38:27.994Z,1029.015
2024-05-09T00:39:26.984Z,1029.029
2024-05-09T00:40:35.717Z,1029.018
2024-05-09T00:41:28.018Z,1029.035
2024-05-09T00:42:26.981Z,1029.021
2024-05-09T00:43:27.991Z,1029.032
2024-05-09T00:44:27.005Z,1029.019
2024-05-09T00:45:28.012Z,1029.002
2024-05-09T00:46:27.033Z,1029.001
2024-05-09T00:47:27.227Z,1029.019
2024-05-09T00:48:28.150Z,1029.004
2024-05-09T00:49:27.193Z,1028.997
2024-05-09T00:50:35.571Z,1029.045
2024-05-09T00:51:27.028Z,1029.041
2024-05-09T00:52:29.616Z,1029.032
2024-05-09T00:53:28.107Z,1029.052
2024-05-09T00:54:27.005Z,1029.057
2024-05-09T00:55:28.055Z,1029.053
2024-05-09T00:56:27.131Z,1029.005
2024-05-09T00:57:28.019Z,1028.995
2024-05-09T00:58:28.014Z,1029.015
2024-05-09T00:59:27.082Z,1029.03
2024-05-09T01:00:35.925Z,1029.014
2024-05-09T01:01:28.058Z,1029.04
2024-05-09T01:02:28.086Z,1029.049
2024-05-09T01:03:28.310Z,1029.064
2024-05-09T01:04:29.952Z,1029.07
2024-05-09T01:05:27.054Z,1029.109
2024-05-09T01:06:27.034Z,1029.059
2024-05-09T01:07:28.076Z,1029.076
2024-05-09T01:08:28.086Z,1029.056
2024-05-09T01:09:28.048Z,1029.069
2024-05-09T01:10:33.688Z,1029.079
2024-05-09T01:11:27.103Z,1029.088
2024-05-09T01:12:28.202Z,1029.068
2024-05-09T01:13:28.050Z,1029.075
2024-05-09T01:14:28.132Z,1029.06
2024-05-09T01:15:27.070Z,1029.057
2024-05-09T01:16:27.057Z,1029.07
2024-05-09T01:17:28.262Z,1029.078
2024-05-09T01:18:28.072Z,1029.076
2024-05-09T01:19:28.306Z,1029.037
2024-05-09T01:20:36.978Z,1029.086
2024-05-09T01:21:28.068Z,1029.041
2024-05-09T01:22:27.115Z,1029.036
2024-05-09T01:23:28.148Z,1029.053
2024-05-09T01:24:28.122Z,1029.078
2024-05-09T01:25:27.079Z,1029.061
2024-05-09T01:26:28.177Z,1029.072
2024-05-09T01:27:27.082Z,1029.093
2024-05-09T01:28:28.082Z,1029.065
2024-05-09T01:29:28.333Z,1029.033
2024-05-09T01:30:33.033Z,1029.076
2024-05-09T01:31:28.075Z,1029.037
2024-05-09T01:32:27.383Z,1029.022
2024-05-09T01:33:30.219Z,1029.039
2024-05-09T01:34:27.100Z,1029.064
2024-05-09T01:35:27.176Z,1029.049
2024-05-09T01:36:28.107Z,1029.034
2024-05-09T01:37:27.129Z,1029.01
2024-05-09T01:38:28.260Z,1029.028
2024-05-09T01:39:27.107Z,1028.985
2024-05-09T01:40:36.331Z,1028.98
2024-05-09T01:41:28.245Z,1028.97
2024-05-09T01:42:27.114Z,1028.947
2024-05-09T01:43:28.119Z,1028.947
2024-05-09T01:44:27.199Z,1028.949
2024-05-09T01:45:27.122Z,1028.969
2024-05-09T01:46:28.113Z,1028.961
2024-05-09T01:47:27.332Z,1028.949
2024-05-09T01:48:28.189Z,1028.961
2024-05-09T01:49:27.216Z,1028.935
2024-05-09T01:50:37.695Z,1028.914
2024-05-09T01:51:28.128Z,1028.933
2024-05-09T01:52:27.144Z,1028.935
2024-05-09T01:53:28.226Z,1028.893
2024-05-09T01:54:27.145Z,1028.93
2024-05-09T01:55:28.137Z,1028.876
2024-05-09T01:56:27.272Z,1028.87
2024-05-09T01:57:27.153Z,1028.888
2024-05-09T01:58:28.142Z,1028.866
2024-05-09T01:59:27.394Z,1028.897
2024-05-09T02:00:37.101Z,1028.906
2024-05-09T02:01:28.328Z,1028.901
2024-05-09T02:02:30.090Z,1028.909
2024-05-09T02:03:28.415Z,1028.946
2024-05-09T02:04:27.302Z,1028.899
2024-05-09T02:05:28.312Z,1028.93
2024-05-09T02:06:27.170Z,1028.915
2024-05-09T02:07:28.157Z,1028.906
2024-05-09T02:08:28.197Z,1028.94
2024-05-09T02:09:27.174Z,1028.948
2024-05-09T02:10:32.502Z,1028.901
2024-05-09T02:11:27.257Z,1028.936
2024-05-09T02:12:28.238Z,1028.91
2024-05-09T02:13:28.166Z,1028.868
2024-05-09T02:14:27.414Z,1028.894
2024-05-09T02:15:28.192Z,1028.904
2024-05-09T02:16:27.198Z,1028.889
2024-05-09T02:17:28.388Z,1028.888
2024-05-09T02:18:28.372Z,1028.861
2024-05-09T02:19:28.320Z,1028.884
2024-05-09T02:20:33.439Z,1028.892
2024-05-09T02:21:27.196Z,1028.857
2024-05-09T02:22:28.248Z,1028.872
2024-05-09T02:23:28.262Z,1028.864
2024-05-09T02:24:28.221Z,1028.858
2024-05-09T02:25:27.208Z,1028.831
2024-05-09T02:26:27.318Z,1028.845
2024-05-09T02:27:28.225Z,1028.873
2024-05-09T02:28:28.206Z,1028.882
2024-05-09T02:29:28.320Z,1028.863
2024-05-09T02:30:36.266Z,1028.851
2024-05-09T02:31:30.143Z,1028.895
2024-05-09T02:32:27.441Z,1028.897
2024-05-09T02:33:28.493Z,1028.885
2024-05-09T02:34:28.245Z,1028.896
2024-05-09T02:35:27.343Z,1028.901
2024-05-09T02:36:28.230Z,1028.908
2024-05-09T02:37:27.278Z,1028.936
2024-05-09T02:38:28.272Z,1028.948
2024-05-09T02:39:28.236Z,1028.953
2024-05-09T02:40:35.667Z,1028.952
2024-05-09T02:41:28.333Z,1028.976
2024-05-09T02:42:27.245Z,1028.946
2024-05-09T02:43:28.238Z,1028.967
2024-05-09T02:44:28.300Z,1028.965
2024-05-09T02:45:27.256Z,1028.946
2024-05-09T02:46:28.272Z,1028.967
2024-05-09T02:47:27.388Z,1028.964
2024-05-09T02:48:31.731Z,1028.951
2024-05-09T02:49:27.308Z,1028.988
2024-05-09T02:50:34.462Z,1028.968
2024-05-09T02:51:28.442Z,1028.999
2024-05-09T02:52:27.273Z,1028.937
2024-05-09T02:53:28.404Z,1028.921
2024-05-09T02:54:27.273Z,1028.932
2024-05-09T02:55:27.323Z,1028.924
2024-05-09T02:56:28.395Z,1028.944
2024-05-09T02:57:27.282Z,1028.919
2024-05-09T02:58:28.281Z,1028.901
2024-05-09T02:59:27.428Z,1028.898
2024-05-09T03:00:39.020Z,1028.849
2024-05-09T03:01:27.309Z,1028.877
2024-05-09T03:02:27.415Z,1028.86
2024-05-09T03:03:29.486Z,1028.883
2024-05-09T03:04:27.350Z,1028.865
2024-05-09T03:05:28.361Z,1028.864
2024-05-09T03:06:27.300Z,1028.867
2024-05-09T03:07:27.343Z,1028.824
2024-05-09T03:08:28.964Z,1028.857
2024-05-09T03:09:27.304Z,1028.849
2024-05-09T03:10:29.082Z,1028.845
2024-05-09T03:11:27.416Z,1028.844
2024-05-09T03:12:27.375Z,1028.815
2024-05-09T03:13:29.005Z,1028.851
2024-05-09T03:14:27.530Z,1028.844
2024-05-09T03:15:28.295Z,1028.831
2024-05-09T03:16:27.362Z,1028.793
2024-05-09T03:17:28.399Z,1028.832
2024-05-09T03:18:29.839Z,1028.801
2024-05-09T03:19:27.444Z,1028.816
2024-05-09T03:20:33.606Z,1028.792
2024-05-09T03:21:27.331Z,1028.828
2024-05-09T03:22:28.326Z,1028.827
2024-05-09T03:23:29.778Z,1028.817
2024-05-09T03:24:27.348Z,1028.853
2024-05-09T03:25:28.330Z,1028.806
2024-05-09T03:26:27.462Z,1028.821
2024-05-09T03:27:28.347Z,1028.82
2024-05-09T03:28:29.793Z,1028.834
2024-05-09T03:29:30.346Z,1028.813
2024-05-09T03:30:35.987Z,1028.819
2024-05-09T03:31:28.350Z,1028.828
2024-05-09T03:32:28.435Z,1028.814
2024-05-09T03:33:30.937Z,1028.801
2024-05-09T03:34:28.416Z,1028.829
2024-05-09T03:35:27.404Z,1028.84
2024-05-09T03:36:27.363Z,1028.82
2024-05-09T03:37:28.364Z,1028.826
2024-05-09T03:38:30.523Z,1028.826
2024-05-09T03:39:28.387Z,1028.806
2024-05-09T03:40:30.819Z,1028.845
2024-05-09T03:41:27.405Z,1028.809
2024-05-09T03:42:28.401Z,1028.789
2024-05-09T03:43:30.644Z,1028.798
2024-05-09T03:44:28.468Z,1028.761
2024-05-09T03:45:27.419Z,1028.779
2024-05-09T03:46:28.389Z,1028.786
2024-05-09T03:47:27.569Z,1028.795
2024-05-09T03:48:27.546Z,1028.777
2024-05-09T03:49:28.451Z,1028.771
2024-05-09T03:50:33.697Z,1028.788
2024-05-09T03:51:28.383Z,1028.787
2024-05-09T03:52:27.404Z,1028.774
2024-05-09T03:53:27.465Z,1028.805
2024-05-09T03:54:28.422Z,1028.809
2024-05-09T03:55:27.460Z,1028.821
2024-05-09T03:56:28.425Z,1028.778
2024-05-09T03:57:27.413Z,1028.771
2024-05-09T03:58:36.492Z,1028.791
2024-05-09T03:59:27.624Z,1028.793
2024-05-09T04:00:35.204Z,1028.792
2024-05-09T04:01:28.477Z,1028.772
2024-05-09T04:02:27.478Z,1028.755
2024-05-09T04:03:28.669Z,1028.776
2024-05-09T04:04:28.489Z,1028.789
2024-05-09T04:05:27.487Z,1028.775
2024-05-09T04:06:28.446Z,1028.782
2024-05-09T04:07:27.480Z,1028.751
2024-05-09T04:08:28.499Z,1028.754
2024-05-09T04:09:28.425Z,1028.761
2024-05-09T04:10:32.810Z,1028.793
2024-05-09T04:11:28.530Z,1028.782
2024-05-09T04:12:27.530Z,1028.802
2024-05-09T04:13:28.470Z,1028.801
2024-05-09T04:14:28.571Z,1028.809
2024-05-09T04:15:28.442Z,1028.796
2024-05-09T04:16:27.497Z,1028.769
2024-05-09T04:17:27.622Z,1028.785
2024-05-09T04:18:28.612Z,1028.808
2024-05-09T04:19:28.626Z,1028.831
2024-05-09T04:20:36.318Z,1028.808
2024-05-09T04:21:28.448Z,1028.808
2024-05-09T04:22:27.511Z,1028.822
2024-05-09T04:23:28.646Z,1028.826
2024-05-09T04:24:28.454Z,1028.806
2024-05-09T04:25:28.455Z,1028.826
2024-05-09T04:26:27.565Z,1028.84
2024-05-09T04:27:30.374Z,1028.811
2024-05-09T04:28:27.522Z,1028.858
2024-05-09T04:29:28.649Z,1028.833
2024-05-09T04:30:36.654Z,1028.85
2024-05-09T04:31:28.486Z,1028.84
2024-05-09T04:32:28.650Z,1028.843
2024-05-09T04:33:27.688Z,1028.842
2024-05-09T04:34:28.637Z,1028.847
2024-05-09T04:35:28.582Z,1028.862
2024-05-09T04:36:27.501Z,1028.866
2024-05-09T04:37:28.484Z,1028.83
2024-05-09T04:38:27.589Z,1028.837
2024-05-09T04:39:28.525Z,1028.88
2024-05-09T04:40:33.723Z,1028.864
2024-05-09T04:41:27.566Z,1028.842
2024-05-09T04:42:28.504Z,1028.866
2024-05-09T04:43:27.568Z,1028.865
2024-05-09T04:44:28.620Z,1028.827
2024-05-09T04:45:27.526Z,1028.834
2024-05-09T04:46:27.574Z,1028.848
2024-05-09T04:47:28.682Z,1028.84
2024-05-09T04:48:27.704Z,1028.84
2024-05-09T04:49:28.624Z,1028.863
2024-05-09T04:50:36.036Z,1028.86
2024-05-09T04:51:28.520Z,1028.827
2024-05-09T04:52:28.552Z,1028.803
2024-05-09T04:53:27.574Z,1028.847
2024-05-09T04:54:35.800Z,1028.827
2024-05-09T04:55:27.544Z,1028.81
2024-05-09T04:56:30.479Z,1028.825
2024-05-09T04:57:27.549Z,1028.815
2024-05-09T04:58:27.588Z,1028.815
2024-05-09T04:59:28.615Z,1028.87
2024-05-09T05:00:35.320Z,1028.799
2024-05-09T05:01:28.649Z,1028.831
2024-05-09T05:02:27.703Z,1028.837
2024-05-09T05:03:27.854Z,1028.837
2024-05-09T05:04:28.606Z,1028.839
2024-05-09T05:05:27.573Z,1028.836
2024-05-09T05:06:28.604Z,1028.816
2024-05-09T05:07:27.613Z,1028.811
2024-05-09T05:08:27.639Z,1028.844
2024-05-09T05:09:28.576Z,1028.802
2024-05-09T05:10:33.828Z,1028.777
2024-05-09T05:11:28.735Z,1028.77
2024-05-09T05:12:27.653Z,1028.804
2024-05-09T05:13:30.135Z,1028.823
2024-05-09T05:14:28.671Z,1028.777
2024-05-09T05:15:27.587Z,1028.83
2024-05-09T05:16:28.604Z,1028.791
2024-05-09T05:17:27.808Z,1028.811
2024-05-09T05:18:28.806Z,1028.825
2024-05-09T05:19:28.822Z,1028.849
2024-05-09T05:20:33.093Z,1028.859
2024-05-09T05:21:28.626Z,1028.856
2024-05-09T05:22:27.616Z,1028.88
2024-05-09T05:23:28.636Z,1028.855
2024-05-09T05:24:28.591Z,1028.843
2024-05-09T05:25:30.534Z,1028.852
2024-05-09T05:26:27.705Z,1028.829
2024-05-09T05:27:27.609Z,1028.84
2024-05-09T05:28:28.605Z,1028.855
2024-05-09T05:29:28.705Z,1028.869
2024-05-09T05:30:32.962Z,1028.861
2024-05-09T05:31:27.673Z,1028.858
2024-05-09T05:32:27.742Z,1028.858
2024-05-09T05:33:28.803Z,1028.908
2024-05-09T05:34:28.624Z,1028.912
2024-05-09T05:35:28.715Z,1028.9
2024-05-09T05:36:27.629Z,1028.906
2024-05-09T05:37:27.694Z,1028.881
2024-05-09T05:38:28.896Z,1028.909
2024-05-09T05:39:28.638Z,1028.876
2024-05-09T05:40:35.885Z,1028.87
2024-05-09T05:41:27.687Z,1028.869
2024-05-09T05:42:29.514Z,1028.86
2024-05-09T05:43:27.644Z,1028.873
2024-05-09T05:44:28.722Z,1028.859
2024-05-09T05:45:28.635Z,1028.85
2024-05-09T05:46:27.647Z,1028.876
2024-05-09T05:47:28.808Z,1028.88
2024-05-09T05:48:27.843Z,1028.874
2024-05-09T05:49:28.721Z,1028.873
2024-05-09T05:50:35.448Z,1028.886
2024-05-09T05:51:27.671Z,1028.887
2024-05-09T05:52:28.705Z,1028.863
2024-05-09T05:53:27.746Z,1028.897
2024-05-09T05:54:30.625Z,1028.912
2024-05-09T05:55:27.719Z,1028.882
2024-05-09T05:56:27.828Z,1028.912
2024-05-09T05:57:28.720Z,1028.925
2024-05-09T05:58:27.726Z,1028.886
2024-05-09T05:59:28.718Z,1028.895
2024-05-09T06:00:34.455Z,1028.892
2024-05-09T06:01:28.684Z,1028.914
2024-05-09T06:02:28.837Z,1028.922
2024-05-09T06:03:27.754Z,1028.938
2024-05-09T06:04:28.714Z,1028.93
2024-05-09T06:05:27.875Z,1028.958
2024-05-09T06:06:27.700Z,1028.936
2024-05-09T06:07:28.735Z,1028.935
2024-05-09T06:08:30.289Z,1028.973
2024-05-09T06:09:28.688Z,1028.937
2024-05-09T06:10:35.099Z,1028.938
2024-05-09T06:11:28.856Z,1028.918
2024-05-09T06:12:27.825Z,1028.96
2024-05-09T06:13:27.712Z,1028.931
2024-05-09T06:14:28.828Z,1028.909
2024-05-09T06:15:27.711Z,1028.925
2024-05-09T06:16:28.757Z,1028.94
2024-05-09T06:17:27.794Z,1028.919
2024-05-09T06:18:27.929Z,1028.907
2024-05-09T06:19:28.892Z,1028.88
2024-05-09T06:20:35.431Z,1028.902
2024-05-09T06:21:28.866Z,1028.917
2024-05-09T06:22:27.755Z,1028.932
2024-05-09T06:23:30.718Z,1028.925
2024-05-09T06:24:28.729Z,1028.908
2024-05-09T06:25:27.787Z,1028.901
2024-05-09T06:26:28.857Z,1028.861
2024-05-09T06:27:27.767Z,1028.891
2024-05-09T06:28:28.764Z,1028.841
2024-05-09T06:29:28.917Z,1028.847
2024-05-09T06:30:35.213Z,1028.832
2024-05-09T06:31:28.827Z,1028.832
2024-05-09T06:32:27.961Z,1028.828
2024-05-09T06:33:29.028Z,1028.799
2024-05-09T06:34:28.827Z,1028.84
2024-05-09T06:35:27.877Z,1028.834
2024-05-09T06:36:28.791Z,1028.821
2024-05-09T06:37:27.806Z,1028.8
2024-05-09T06:38:28.778Z,1028.819
2024-05-09T06:39:28.770Z,1028.82
2024-05-09T06:40:36.617Z,1028.801
2024-05-09T06:41:28.929Z,1028.79
2024-05-09T06:42:27.780Z,1028.79
2024-05-09T06:43:28.765Z,1028.8
2024-05-09T06:44:28.843Z,1028.771
2024-05-09T06:45:28.766Z,1028.807
2024-05-09T06:46:27.819Z,1028.793
2024-05-09T06:47:27.981Z,1028.799
2024-05-09T06:48:28.945Z,1028.804
2024-05-09T06:49:28.920Z,1028.813
2024-05-09T06:50:35.716Z,1028.861
2024-05-09T06:51:27.794Z,1028.803
2024-05-09T06:52:34.660Z,1028.819
2024-05-09T06:53:27.950Z,1028.807
2024-05-09T06:54:28.802Z,1028.788
2024-05-09T06:55:28.819Z,1028.806
2024-05-09T06:56:27.861Z,1028.804
2024-05-09T06:57:28.804Z,1028.816
2024-05-09T06:58:27.815Z,1028.854
2024-05-09T06:59:29.134Z,1028.857
2024-05-09T07:00:35.617Z,1028.847
2024-05-09T07:01:28.916Z,1028.842
2024-05-09T07:02:28.958Z,1028.836
2024-05-09T07:03:27.966Z,1028.88
2024-05-09T07:04:28.996Z,1028.865
2024-05-09T07:05:28.908Z,1028.876
2024-05-09T07:06:27.847Z,1028.884
2024-05-09T07:07:28.825Z,1028.894
2024-05-09T07:08:27.865Z,1028.878
2024-05-09T07:09:28.877Z,1028.915
2024-05-09T07:10:34.087Z,1028.938
2024-05-09T07:11:27.925Z,1028.936
2024-05-09T07:12:28.976Z,1028.916
2024-05-09T07:13:27.873Z,1028.938
2024-05-09T07:14:29.139Z,1028.891
2024-05-09T07:15:27.869Z,1028.93
2024-05-09T07:16:27.876Z,1028.889
2024-05-09T07:17:29.115Z,1028.889
2024-05-09T07:18:28.074Z,1028.841
2024-05-09T07:19:29.003Z,1028.831
2024-05-09T07:20:34.146Z,1028.858
2024-05-09T07:21:30.760Z,1028.885
2024-05-09T07:22:27.879Z,1028.841
2024-05-09T07:23:27.939Z,1028.845
2024-05-09T07:24:28.854Z,1028.839
2024-05-09T07:25:27.909Z,1028.873
2024-05-09T07:26:28.908Z,1028.835
2024-05-09T07:27:27.893Z,1028.85
2024-05-09T07:28:27.940Z,1028.85
2024-05-09T07:29:28.988Z,1028.828
2024-05-09T07:30:33.281Z,1028.803
2024-05-09T07:31:28.874Z,1028.794
2024-05-09T07:32:28.060Z,1028.756
2024-05-09T07:33:28.015Z,1028.734
2024-05-09T07:34:28.993Z,1028.707
2024-05-09T07:35:28.026Z,1028.761
2024-05-09T07:36:28.894Z,1028.771
2024-05-09T07:37:27.895Z,1028.722
2024-05-09T07:38:28.938Z,1028.739
2024-05-09T07:39:28.994Z,1028.73
2024-05-09T07:40:34.608Z,1028.735
2024-05-09T07:41:28.953Z,1028.729
2024-05-09T07:42:27.911Z,1028.736
2024-05-09T07:43:28.912Z,1028.715
2024-05-09T07:44:29.002Z,1028.73
2024-05-09T07:45:44.980Z,1028.711
2024-05-09T07:47:36.825Z,1028.736
2024-05-09T07:48:57.164Z,1028.745
2024-05-09T07:50:01.104Z,1028.756
2024-05-09T07:53:32.520Z,1028.765
2024-05-09T07:53:39.987Z,1028.75
2024-05-09T07:54:29.045Z,1028.728
2024-05-09T07:55:29.258Z,1028.711
2024-05-09T07:56:28.283Z,1028.704
2024-05-09T07:57:27.976Z,1028.705
2024-05-09T07:58:28.963Z,1028.698
2024-05-09T07:59:28.962Z,1028.705
2024-05-09T08:00:31.632Z,1028.705
2024-05-09T08:01:28.083Z,1028.681
2024-05-09T08:02:28.099Z,1028.635
2024-05-09T08:03:29.156Z,1028.656
2024-05-09T08:04:29.054Z,1028.654
2024-05-09T08:05:29.181Z,1028.678
2024-05-09T08:06:28.058Z,1028.677
2024-05-09T08:07:28.958Z,1028.692
2024-05-09T08:08:28.017Z,1028.659
2024-05-09T08:09:29.096Z,1028.682
2024-05-09T08:10:29.427Z,1028.695
2024-05-09T08:11:28.021Z,1028.656
2024-05-09T08:12:29.023Z,1028.635
2024-05-09T08:13:28.001Z,1028.642
2024-05-09T08:14:28.971Z,1028.587
2024-05-09T08:15:29.189Z,1028.573
2024-05-09T08:16:28.038Z,1028.557
2024-05-09T08:17:29.091Z,1028.569
2024-05-09T08:18:28.268Z,1028.525
2024-05-09T08:19:31.073Z,1028.513
2024-05-09T08:20:31.325Z,1028.53
2024-05-09T08:21:28.034Z,1028.514
2024-05-09T08:22:29.030Z,1028.555
2024-05-09T08:23:28.050Z,1028.52
2024-05-09T08:24:29.064Z,1028.554
2024-05-09T08:25:28.062Z,1028.493
2024-05-09T08:26:28.011Z,1028.559
2024-05-09T08:27:29.127Z,1028.535
2024-05-09T08:28:28.121Z,1028.509
2024-05-09T08:29:29.011Z,1028.48
2024-05-09T08:30:33.757Z,1028.512
2024-05-09T08:31:28.171Z,1028.493
2024-05-09T08:32:29.154Z,1028.459
2024-05-09T08:33:28.181Z,1028.506
2024-05-09T08:34:29.119Z,1028.503
2024-05-09T08:35:28.024Z,1028.512
2024-05-09T08:36:29.062Z,1028.512
2024-05-09T08:37:32.785Z,1028.475
2024-05-09T08:38:28.034Z,1028.507
2024-05-09T08:39:29.035Z,1028.497
2024-05-09T08:40:34.202Z,1028.492
2024-05-09T08:41:29.053Z,1028.47
2024-05-09T08:42:28.094Z,1028.461
2024-05-09T08:43:28.072Z,1028.463
2024-05-09T08:44:29.064Z,1028.459
2024-05-09T08:45:28.185Z,1028.412
2024-05-09T08:46:29.251Z,1028.434
2024-05-09T08:47:28.144Z,1028.419
2024-05-09T08:48:34.040Z,1028.408
2024-05-09T08:49:29.162Z,1028.402
2024-05-09T08:50:36.352Z,1028.412
2024-05-09T08:51:29.168Z,1028.38
2024-05-09T08:52:28.082Z,1028.407
2024-05-09T08:53:29.077Z,1028.409
2024-05-09T08:54:29.107Z,1028.378
2024-05-09T08:55:28.091Z,1028.421
2024-05-09T08:56:29.075Z,1028.336
2024-05-09T08:57:28.195Z,1028.329
2024-05-09T08:58:29.066Z,1028.323
2024-05-09T08:59:29.088Z,1028.356
2024-05-09T09:00:35.820Z,1028.324
2024-05-09T09:01:29.138Z,1028.361
2024-05-09T09:02:28.329Z,1028.325
2024-05-09T09:03:29.309Z,1028.379
2024-05-09T09:04:29.165Z,1028.396
2024-05-09T09:05:30.684Z,1028.375
2024-05-09T09:06:28.140Z,1028.345
2024-05-09T09:07:28.267Z,1028.341
2024-05-09T09:08:29.117Z,1028.323
2024-05-09T09:09:29.149Z,1028.349
2024-05-09T09:10:32.150Z,1028.294
2024-05-09T09:11:28.153Z,1028.336
2024-05-09T09:12:28.147Z,1028.316
2024-05-09T09:13:29.126Z,1028.352
2024-05-09T09:14:29.099Z,1028.343
2024-05-09T09:15:29.137Z,1028.325
2024-05-09T09:16:28.167Z,1028.338
2024-05-09T09:17:35.639Z,1028.364
2024-05-09T09:18:28.589Z,1028.345
2024-05-09T09:19:29.186Z,1028.297
2024-05-09T09:20:35.722Z,1028.35
2024-05-09T09:21:28.158Z,1028.323
2024-05-09T09:22:29.156Z,1028.347
2024-05-09T09:23:28.144Z,1028.328
2024-05-09T09:24:29.187Z,1028.329
2024-05-09T09:25:29.170Z,1028.329
2024-05-09T09:26:28.154Z,1028.318
2024-05-09T09:27:29.146Z,1028.275
2024-05-09T09:28:28.178Z,1028.317
2024-05-09T09:29:29.154Z,1028.293
2024-05-09T09:30:36.053Z,1028.282
2024-05-09T09:31:28.261Z,1028.294
2024-05-09T09:32:29.302Z,1028.278
2024-05-09T09:33:28.297Z,1028.305
2024-05-09T09:34:29.364Z,1028.284
2024-05-09T09:35:28.173Z,1028.298
2024-05-09T09:36:28.271Z,1028.33
2024-05-09T09:37:29.220Z,1028.264
2024-05-09T09:38:28.226Z,1028.285
2024-05-09T09:39:29.232Z,1028.285
2024-05-09T09:40:32.172Z,1028.25
2024-05-09T09:41:28.182Z,1028.262
2024-05-09T09:42:29.250Z,1028.248
2024-05-09T09:43:28.187Z,1028.256
2024-05-09T09:44:29.179Z,1028.267
2024-05-09T09:45:28.249Z,1028.24
2024-05-09T09:46:32.220Z,1028.254
2024-05-09T09:47:28.269Z,1028.279
2024-05-09T09:48:28.339Z,1028.262
2024-05-09T09:49:29.317Z,1028.221
2024-05-09T09:50:34.115Z,1028.245
2024-05-09T09:51:29.210Z,1028.268
2024-05-09T09:52:28.292Z,1028.282
2024-05-09T09:53:28.213Z,1028.249
2024-05-09T09:54:29.243Z,1028.279
2024-05-09T09:55:28.235Z,1028.279
2024-05-09T09:56:29.239Z,1028.281
2024-05-09T09:57:28.285Z,1028.255
2024-05-09T09:58:28.396Z,1028.228
2024-05-09T09:59:29.213Z,1028.226
2024-05-09T10:00:32.873Z,1028.225
2024-05-09T10:01:29.328Z,1028.187
2024-05-09T10:02:28.369Z,1028.162
2024-05-09T10:03:29.403Z,1028.145
2024-05-09T10:04:29.358Z,1028.152
2024-05-09T10:05:28.443Z,1028.167
2024-05-09T10:06:29.266Z,1028.153
2024-05-09T10:07:28.272Z,1028.146
2024-05-09T10:08:29.227Z,1028.156
2024-05-09T10:09:29.279Z,1028.157
2024-05-09T10:10:32.430Z,1028.14
2024-05-09T10:11:29.384Z,1028.104
2024-05-09T10:12:28.306Z,1028.084
2024-05-09T10:13:29.292Z,1028.089
2024-05-09T10:14:29.265Z,1028.055
2024-05-09T10:15:50.939Z,1028.039
2024-05-09T10:16:28.308Z,1028.036
2024-05-09T10:17:28.375Z,1028.028
2024-05-09T10:18:31.252Z,1028.053
2024-05-09T10:19:29.405Z,1028.037
2024-05-09T10:21:29.319Z,1028.032
2024-05-09T10:22:28.331Z,1028.041
2024-05-09T10:23:29.405Z,1028.021
2024-05-09T10:24:29.351Z,1027.996
2024-05-09T10:25:29.302Z,1028.004
2024-05-09T10:26:28.289Z,1027.99
2024-05-09T10:27:28.356Z,1027.943
2024-05-09T10:28:29.328Z,1027.97
2024-05-09T10:29:29.288Z,1027.93
2024-05-09T10:30:34.353Z,1027.933
2024-05-09T10:31:28.349Z,1027.915
2024-05-09T10:32:29.387Z,1027.916
2024-05-09T10:33:28.425Z,1027.914
2024-05-09T10:34:29.378Z,1027.881
2024-05-09T10:35:29.296Z,1027.904
2024-05-09T10:36:28.469Z,1027.905
2024-05-09T10:37:29.448Z,1027.906
2024-05-09T10:38:28.328Z,1027.883
2024-05-09T10:39:29.342Z,1027.859
2024-05-09T10:40:31.611Z,1027.885
2024-05-09T10:41:28.320Z,1027.858
2024-05-09T10:42:29.349Z,1027.8
2024-05-09T10:43:28.346Z,1027.845
2024-05-09T10:44:37.382Z,1027.847
2024-05-09T10:45:28.356Z,1027.845
2024-05-09T10:46:28.371Z,1027.83
2024-05-09T10:47:29.431Z,1027.822
2024-05-09T10:48:28.504Z,1027.825
2024-05-09T10:49:29.381Z,1027.794
2024-05-09T10:50:31.970Z,1027.795
2024-05-09T10:51:28.385Z,1027.767
2024-05-09T10:52:29.339Z,1027.74
2024-05-09T10:53:28.349Z,1027.733
2024-05-09T10:54:29.374Z,1027.736
2024-05-09T10:55:28.395Z,1027.752
2024-05-09T10:56:28.367Z,1027.778
2024-05-09T10:57:29.387Z,1027.755
2024-05-09T10:58:28.418Z,1027.732
2024-05-09T10:59:29.352Z,1027.712
2024-05-09T11:00:33.681Z,1027.725
2024-05-09T11:01:29.435Z,1027.737
2024-05-09T11:02:28.585Z,1027.722
2024-05-09T11:03:28.482Z,1027.726
2024-05-09T11:04:29.403Z,1027.724
2024-05-09T11:05:28.580Z,1027.683
2024-05-09T11:06:29.368Z,1027.692
2024-05-09T11:07:28.402Z,1027.676
2024-05-09T11:08:28.391Z,1027.671
2024-05-09T11:09:29.410Z,1027.631
2024-05-09T11:10:33.733Z,1027.663
2024-05-09T11:11:29.458Z,1027.626
2024-05-09T11:12:28.416Z,1027.645
2024-05-09T11:13:33.423Z,1027.627
2024-05-09T11:14:29.384Z,1027.642
2024-05-09T11:15:28.421Z,1027.616
2024-05-09T11:16:29.428Z,1027.626
2024-05-09T11:17:28.681Z,1027.615
2024-05-09T11:18:31.890Z,1027.567
2024-05-09T11:19:29.470Z,1027.589
2024-05-09T11:20:30.143Z,1027.549
2024-05-09T11:21:29.461Z,1027.554
2024-05-09T11:22:28.473Z,1027.489
2024-05-09T11:23:29.412Z,1027.468
2024-05-09T11:24:29.454Z,1027.452
2024-05-09T11:25:28.423Z,1027.449
2024-05-09T11:26:29.532Z,1027.436
2024-05-09T11:27:28.509Z,1027.453
2024-05-09T11:28:29.420Z,1027.449
2024-05-09T11:29:29.425Z,1027.402
2024-05-09T11:30:32.135Z,1027.469
2024-05-09T11:31:28.554Z,1027.421
2024-05-09T11:32:28.685Z,1027.426
2024-05-09T11:33:29.628Z,1027.381
2024-05-09T11:34:29.496Z,1027.404
2024-05-09T11:35:29.488Z,1027.376
2024-05-09T11:36:28.495Z,1027.343
2024-05-09T11:37:28.511Z,1027.336
2024-05-09T11:38:29.473Z,1027.31
2024-05-09T11:39:29.480Z,1027.302
2024-05-09T11:40:34.197Z,1027.239
2024-05-09T11:41:28.485Z,1027.243
2024-05-09T11:42:31.514Z,1027.23
2024-05-09T11:43:28.582Z,1027.165
2024-05-09T11:44:29.448Z,1027.137
2024-05-09T11:45:29.492Z,1027.181
2024-05-09T11:46:28.499Z,1027.168
2024-05-09T11:47:29.564Z,1027.147
2024-05-09T11:48:28.653Z,1027.215
2024-05-09T11:49:29.602Z,1027.177
2024-05-09T11:50:33.188Z,1027.168